Time;durP1;ratioP1;P1;durP2;ratioP2;P2;SDS_P1;SDS_P2;PMS_P1;PMS_P2;Temp;Humidity;BMP_temperature;BMP_pressure;BME280_temperature;BME280_humidity;BME280_pressure;Samples;Min_cycle;Max_cycle;Signal;HPM_P1;HPM_P2
2023/12/08 00:01:56;;;;;;;19.60;12.77;;;0.80;99.90;;;;;;4937643;28;20208;-30
2023/12/08 00:04:22;;;;;;;17.73;12.10;;;0.80;99.90;;;;;;4941371;29;20285;-31
2023/12/08 00:06:48;;;;;;;18.60;12.00;;;0.80;99.90;;;;;;4942607;28;20264;-31
2023/12/08 00:09:14;;;;;;;17.37;11.93;;;0.80;99.90;;;;;;4954718;28;20288;-31
2023/12/08 00:11:40;;;;;;;17.07;11.87;;;0.80;99.90;;;;;;4939876;28;20263;-31
2023/12/08 00:14:06;;;;;;;21.07;11.77;;;0.80;99.90;;;;;;4943750;28;20204;-30
2023/12/08 00:16:32;;;;;;;19.07;11.90;;;0.90;99.90;;;;;;4948590;28;20216;-30
2023/12/08 00:18:57;;;;;;;18.13;11.83;;;0.90;99.90;;;;;;4937702;28;20209;-30
2023/12/08 00:21:25;;;;;;;16.97;11.73;;;0.90;99.90;;;;;;4944196;29;20182;-31
2023/12/08 00:23:51;;;;;;;15.77;11.73;;;0.90;99.90;;;;;;4939854;28;20229;-31
2023/12/08 00:26:17;;;;;;;15.43;11.00;;;1.00;99.90;;;;;;4938065;28;20300;-31
2023/12/08 00:28:44;;;;;;;16.90;11.40;;;1.00;99.90;;;;;;4940273;28;20303;-28
2023/12/08 00:31:10;;;;;;;16.23;12.43;;;1.00;99.90;;;;;;4944484;28;20199;-30
2023/12/08 00:33:36;;;;;;;18.93;12.77;;;1.00;99.90;;;;;;4937689;28;20282;-31
2023/12/08 00:36:11;;;;;;;16.90;12.17;;;1.00;99.90;;;;;;4937178;28;20312;-31
2023/12/08 00:38:37;;;;;;;19.53;12.23;;;1.00;99.90;;;;;;4934146;28;20211;-31
2023/12/08 00:41:04;;;;;;;16.70;12.37;;;1.00;99.90;;;;;;4936764;28;20191;-30
2023/12/08 00:43:29;;;;;;;17.80;12.57;;;1.00;99.90;;;;;;4945826;28;20193;-30
2023/12/08 00:45:55;;;;;;;18.83;11.90;;;1.00;99.90;;;;;;4937357;28;20185;-30
2023/12/08 00:48:21;;;;;;;17.10;11.07;;;0.90;99.90;;;;;;4952940;28;20212;-30
2023/12/08 00:50:47;;;;;;;16.90;11.13;;;1.00;99.90;;;;;;4937429;28;20204;-30
2023/12/08 00:53:12;;;;;;;20.13;12.87;;;1.00;99.90;;;;;;4936019;28;20914;-31
2023/12/08 00:55:38;;;;;;;16.20;12.07;;;1.00;99.90;;;;;;4939332;28;20196;-32
2023/12/08 00:58:04;;;;;;;16.70;11.07;;;1.00;99.90;;;;;;4951312;28;20196;-30
2023/12/08 01:00:30;;;;;;;16.93;11.53;;;1.00;99.90;;;;;;4923567;28;20220;-30
2023/12/08 01:02:56;;;;;;;16.70;12.33;;;1.00;99.90;;;;;;4953964;28;20271;-31
2023/12/08 01:05:22;;;;;;;18.30;12.53;;;1.10;99.90;;;;;;4949047;28;20173;-31
2023/12/08 01:07:48;;;;;;;19.20;12.23;;;1.00;99.90;;;;;;4945136;28;20220;-31
2023/12/08 01:10:13;;;;;;;17.70;11.97;;;0.90;99.90;;;;;;4939492;28;20189;-31
2023/12/08 01:12:39;;;;;;;17.10;11.87;;;0.80;99.90;;;;;;4942823;28;20199;-31
2023/12/08 01:15:06;;;;;;;17.60;11.27;;;0.80;99.90;;;;;;4955619;28;20192;-30
2023/12/08 01:17:32;;;;;;;19.13;11.53;;;0.90;99.90;;;;;;4944588;29;20243;-30
2023/12/08 01:19:57;;;;;;;20.43;12.60;;;0.90;99.90;;;;;;4944896;29;20204;-31
2023/12/08 01:22:27;;;;;;;17.00;11.90;;;0.90;99.90;;;;;;4948042;28;20285;-31
2023/12/08 01:24:53;;;;;;;15.20;10.90;;;0.90;99.90;;;;;;4941290;28;20208;-31
2023/12/08 01:27:19;;;;;;;17.07;11.23;;;0.90;99.90;;;;;;4938481;28;20244;-31
2023/12/08 01:29:45;;;;;;;20.20;12.30;;;0.90;99.90;;;;;;4943491;28;20201;-31
2023/12/08 01:32:11;;;;;;;17.07;10.87;;;0.90;99.90;;;;;;4940997;28;20189;-30
2023/12/08 01:34:36;;;;;;;17.60;12.10;;;0.90;99.90;;;;;;4940293;29;20193;-31
2023/12/08 01:37:03;;;;;;;16.13;11.10;;;1.00;99.90;;;;;;4944536;28;20325;-31
2023/12/08 01:39:28;;;;;;;19.67;11.73;;;1.00;99.90;;;;;;4946752;28;20212;-30
2023/12/08 01:41:54;;;;;;;16.57;11.30;;;1.00;99.90;;;;;;4947124;28;20211;-31
2023/12/08 01:44:20;;;;;;;16.07;12.17;;;1.00;99.90;;;;;;4940202;28;20189;-31
2023/12/08 01:46:46;;;;;;;16.80;11.27;;;1.10;99.90;;;;;;4948684;28;20193;-30
2023/12/08 01:49:13;;;;;;;16.10;11.33;;;1.10;99.90;;;;;;4939010;28;20208;-31
2023/12/08 01:51:39;;;;;;;16.33;10.53;;;1.10;99.90;;;;;;4944488;29;20284;-31
2023/12/08 01:54:06;;;;;;;16.87;11.50;;;1.10;99.90;;;;;;4945546;28;20271;-31
2023/12/08 01:56:32;;;;;;;15.13;10.73;;;1.10;99.90;;;;;;4938023;29;20209;-30
2023/12/08 01:58:58;;;;;;;13.90;10.70;;;1.10;99.90;;;;;;4938156;29;20209;-30
2023/12/08 02:01:25;;;;;;;18.87;11.67;;;1.10;99.90;;;;;;4937269;28;20264;-32
2023/12/08 02:03:51;;;;;;;17.23;11.10;;;1.10;99.90;;;;;;4935956;28;20195;-30
2023/12/08 02:06:17;;;;;;;15.67;11.03;;;1.10;99.90;;;;;;4956324;28;20284;-31
2023/12/08 02:08:46;;;;;;;16.33;11.30;;;1.10;99.90;;;;;;4967969;28;20296;-29
2023/12/08 02:11:13;;;;;;;16.30;10.83;;;1.10;99.90;;;;;;4944695;28;20192;-31
2023/12/08 02:13:40;;;;;;;16.53;11.47;;;1.10;99.90;;;;;;4932032;28;20192;-30
2023/12/08 02:16:24;;;;;;;16.97;10.80;;;1.10;99.90;;;;;;4964038;28;20229;-31
2023/12/08 02:18:51;;;;;;;17.37;11.10;;;1.10;99.90;;;;;;4973147;28;20200;-31
2023/12/08 02:21:17;;;;;;;14.20;10.67;;;1.10;99.90;;;;;;4947715;28;20188;-31
2023/12/08 02:23:50;;;;;;;15.90;10.77;;;1.10;99.90;;;;;;4950099;29;20198;-30
2023/12/08 02:26:20;;;;;;;14.50;10.07;;;1.10;99.90;;;;;;4936512;28;20188;-31
2023/12/08 02:28:46;;;;;;;14.77;10.70;;;1.10;99.90;;;;;;4960363;23;20243;-29
2023/12/08 02:31:16;;;;;;;15.93;11.20;;;1.10;99.90;;;;;;4963652;28;20212;-29
2023/12/08 02:33:46;;;;;;;15.57;11.03;;;1.10;99.90;;;;;;4948961;28;20193;-29
2023/12/08 02:36:16;;;;;;;15.90;11.33;;;1.10;99.90;;;;;;4946487;28;20217;-28
2023/12/08 02:38:42;;;;;;;14.87;10.87;;;1.10;99.90;;;;;;4953416;28;20228;-28
2023/12/08 02:41:09;;;;;;;20.23;11.20;;;1.10;99.90;;;;;;4952601;28;20189;-28
2023/12/08 02:43:34;;;;;;;15.67;11.03;;;1.10;99.90;;;;;;4972426;28;20188;-28
2023/12/08 02:46:00;;;;;;;16.50;11.53;;;1.10;99.90;;;;;;4987921;28;20267;-27
2023/12/08 02:48:26;;;;;;;13.63;10.27;;;1.10;99.90;;;;;;4970325;28;20291;-28
2023/12/08 02:50:52;;;;;;;13.77;10.63;;;1.10;99.90;;;;;;4970929;28;20294;-29
2023/12/08 02:53:18;;;;;;;16.27;11.33;;;1.10;99.90;;;;;;4965398;28;20284;-28
2023/12/08 02:55:44;;;;;;;15.40;10.67;;;1.10;99.90;;;;;;4969248;28;20193;-28
2023/12/08 02:58:09;;;;;;;16.17;10.40;;;1.10;99.90;;;;;;4970600;28;20208;-29
2023/12/08 03:00:35;;;;;;;23.90;11.87;;;1.10;99.90;;;;;;4971311;28;20275;-28
2023/12/08 03:03:01;;;;;;;16.77;10.97;;;1.10;99.90;;;;;;4965992;28;20239;-29
2023/12/08 03:05:27;;;;;;;15.93;11.40;;;1.10;99.90;;;;;;4964757;28;20184;-30
2023/12/08 03:07:53;;;;;;;17.00;11.57;;;1.00;99.90;;;;;;4965605;28;20326;-28
2023/12/08 03:10:19;;;;;;;16.00;11.60;;;1.00;99.90;;;;;;4952240;28;20212;-29
2023/12/08 03:12:45;;;;;;;18.20;13.27;;;0.90;99.90;;;;;;4962114;28;20237;-29
2023/12/08 03:15:11;;;;;;;22.47;14.30;;;0.90;99.90;;;;;;4952603;28;20228;-28
2023/12/08 03:17:37;;;;;;;20.30;13.90;;;0.90;99.90;;;;;;4969819;28;20208;-28
2023/12/08 03:20:03;;;;;;;16.67;12.83;;;0.90;99.90;;;;;;4986457;28;20208;-28
2023/12/08 03:22:29;;;;;;;73.97;36.90;;;0.90;99.90;;;;;;4970080;28;20192;-30
2023/12/08 03:24:54;;;;;;;170.13;77.40;;;1.00;99.90;;;;;;4970782;28;20177;-29
2023/12/08 03:27:20;;;;;;;75.87;40.47;;;0.90;99.90;;;;;;4969997;28;20184;-29
2023/12/08 03:29:46;;;;;;;49.83;26.80;;;0.90;99.90;;;;;;4970807;28;20223;-29
2023/12/08 03:32:12;;;;;;;31.60;19.60;;;0.90;99.90;;;;;;4962967;28;20251;-28
2023/12/08 03:34:38;;;;;;;28.00;17.90;;;1.00;99.90;;;;;;4972106;28;20200;-29
2023/12/08 03:37:03;;;;;;;23.53;15.00;;;0.90;99.90;;;;;;4970102;28;20268;-29
2023/12/08 03:39:29;;;;;;;23.50;14.03;;;1.00;99.90;;;;;;4968175;28;20212;-29
2023/12/08 03:41:55;;;;;;;24.60;14.60;;;1.00;99.90;;;;;;4966005;28;20192;-28
2023/12/08 03:44:21;;;;;;;17.57;12.63;;;1.00;99.90;;;;;;4968838;28;20212;-28
2023/12/08 03:46:47;;;;;;;20.10;13.27;;;1.10;99.90;;;;;;4968554;28;20188;-28
2023/12/08 03:49:12;;;;;;;16.70;11.50;;;1.10;99.90;;;;;;4964655;28;20196;-28
2023/12/08 03:51:38;;;;;;;17.30;12.17;;;1.10;99.90;;;;;;4970270;28;20192;-28
2023/12/08 03:54:04;;;;;;;17.20;12.20;;;1.10;99.90;;;;;;4970163;28;20180;-29
2023/12/08 03:56:30;;;;;;;16.90;11.47;;;1.10;99.90;;;;;;4971833;28;20216;-28
2023/12/08 03:58:56;;;;;;;17.53;11.63;;;1.10;99.90;;;;;;4946361;28;20205;-28
2023/12/08 04:01:22;;;;;;;18.80;12.27;;;1.10;99.90;;;;;;4945168;28;20192;-29
2023/12/08 04:03:48;;;;;;;13.27;10.00;;;1.10;99.90;;;;;;4986498;28;20180;-28
2023/12/08 04:06:13;;;;;;;15.70;11.67;;;1.10;99.90;;;;;;4985871;28;20196;-28
2023/12/08 04:08:39;;;;;;;15.33;11.37;;;1.10;99.90;;;;;;4951903;28;20255;-28
2023/12/08 04:11:05;;;;;;;16.53;11.83;;;1.10;99.90;;;;;;4966524;28;20185;-29
2023/12/08 04:13:32;;;;;;;17.80;12.20;;;1.10;99.90;;;;;;4970552;28;20188;-28
2023/12/08 04:15:57;;;;;;;18.60;12.00;;;1.10;99.90;;;;;;4969004;28;20219;-29
2023/12/08 04:18:23;;;;;;;16.77;12.07;;;1.10;99.90;;;;;;4964161;28;20197;-28
2023/12/08 04:20:49;;;;;;;15.67;11.20;;;1.10;99.90;;;;;;4970425;28;20192;-29
2023/12/08 04:23:15;;;;;;;15.57;11.33;;;1.10;99.90;;;;;;4986134;28;20688;-29
2023/12/08 04:25:41;;;;;;;16.77;10.77;;;1.10;99.90;;;;;;4952522;28;20188;-29
2023/12/08 04:28:07;;;;;;;16.97;11.40;;;1.10;99.90;;;;;;4965397;28;20201;-29
2023/12/08 04:30:33;;;;;;;17.57;11.50;;;1.20;99.90;;;;;;4952662;28;20343;-29
2023/12/08 04:32:58;;;;;;;16.47;11.63;;;1.20;99.90;;;;;;4970105;28;20184;-29
2023/12/08 04:35:24;;;;;;;15.17;11.13;;;1.20;99.90;;;;;;4969479;28;20184;-28
2023/12/08 04:37:50;;;;;;;15.70;10.50;;;1.20;99.90;;;;;;4969470;28;20270;-28
2023/12/08 04:40:17;;;;;;;14.70;10.93;;;1.20;99.90;;;;;;4972146;28;20192;-29
2023/12/08 04:42:45;;;;;;;13.97;10.30;;;1.20;99.90;;;;;;4973489;28;20184;-28
2023/12/08 04:45:13;;;;;;;15.27;10.30;;;1.20;99.90;;;;;;4973433;28;20267;-29
2023/12/08 04:47:40;;;;;;;17.50;11.77;;;1.20;99.90;;;;;;4973208;28;20188;-28
2023/12/08 04:50:07;;;;;;;15.20;11.40;;;1.20;99.90;;;;;;4970545;28;20248;-28
2023/12/08 04:52:33;;;;;;;16.80;11.37;;;1.30;99.90;;;;;;4956345;28;20185;-28
2023/12/08 04:55:01;;;;;;;14.83;10.50;;;1.30;99.90;;;;;;4965747;28;20192;-28
2023/12/08 04:57:27;;;;;;;15.87;11.67;;;1.30;99.90;;;;;;4952543;29;20212;-29
2023/12/08 04:59:53;;;;;;;14.77;10.63;;;1.30;99.90;;;;;;4952062;28;20205;-29
2023/12/08 05:02:19;;;;;;;13.13;10.43;;;1.30;99.90;;;;;;4971746;28;20190;-29
2023/12/08 05:04:44;;;;;;;14.57;10.63;;;1.30;99.90;;;;;;4973352;28;20181;-28
2023/12/08 05:07:10;;;;;;;14.03;10.23;;;1.30;99.90;;;;;;4989945;28;20183;-29
2023/12/08 05:09:36;;;;;;;14.70;10.10;;;1.30;99.90;;;;;;4973331;28;20351;-27
2023/12/08 05:12:02;;;;;;;14.73;11.07;;;1.30;99.90;;;;;;4967596;28;20221;-28
2023/12/08 05:14:28;;;;;;;14.17;10.10;;;1.30;99.90;;;;;;4965239;28;20181;-29
2023/12/08 05:16:54;;;;;;;13.63;10.13;;;1.30;99.90;;;;;;4967655;28;20219;-29
2023/12/08 05:19:20;;;;;;;15.27;10.83;;;1.30;99.90;;;;;;4966033;28;20210;-27
2023/12/08 05:21:45;;;;;;;15.90;11.47;;;1.30;99.90;;;;;;4954025;29;20190;-27
2023/12/08 05:24:11;;;;;;;16.53;11.60;;;1.40;99.90;;;;;;4953161;28;20227;-27
2023/12/08 05:26:37;;;;;;;16.90;11.60;;;1.30;99.90;;;;;;4969193;28;20180;-28
2023/12/08 05:29:03;;;;;;;17.80;11.90;;;1.30;99.90;;;;;;4950626;28;20209;-28
2023/12/08 05:31:29;;;;;;;16.20;10.93;;;1.30;99.90;;;;;;4954610;28;20254;-28
2023/12/08 05:33:54;;;;;;;15.33;11.70;;;1.30;99.90;;;;;;4970427;28;20196;-28
2023/12/08 05:36:22;;;;;;;16.33;12.13;;;1.30;99.90;;;;;;4972933;28;20221;-27
2023/12/08 05:38:48;;;;;;;13.60;10.03;;;1.30;99.90;;;;;;4971450;28;20236;-27
2023/12/08 05:41:14;;;;;;;15.63;10.90;;;1.30;99.90;;;;;;4953468;28;20209;-27
2023/12/08 05:43:42;;;;;;;16.23;11.90;;;1.30;99.90;;;;;;4972328;28;20212;-29
2023/12/08 05:46:08;;;;;;;18.03;11.60;;;1.20;99.90;;;;;;4988506;28;20188;-28
2023/12/08 05:48:34;;;;;;;15.07;11.23;;;1.20;99.90;;;;;;4972637;28;20220;-28
2023/12/08 05:50:59;;;;;;;19.60;12.23;;;1.20;99.90;;;;;;4971341;28;20184;-29
2023/12/08 05:53:25;;;;;;;13.60;10.40;;;1.20;99.90;;;;;;4968914;28;20185;-27
2023/12/08 05:55:51;;;;;;;18.03;11.93;;;1.30;99.90;;;;;;4970960;28;20231;-28
2023/12/08 05:58:17;;;;;;;18.10;11.80;;;1.30;99.90;;;;;;4969747;28;20208;-28
2023/12/08 06:00:43;;;;;;;14.67;11.67;;;1.30;99.90;;;;;;4951108;28;20184;-28
2023/12/08 06:03:09;;;;;;;17.00;12.13;;;1.20;99.90;;;;;;4965610;28;20189;-27
2023/12/08 06:05:34;;;;;;;16.47;12.27;;;1.30;99.90;;;;;;4953912;28;20276;-28
2023/12/08 06:08:00;;;;;;;21.97;12.70;;;1.30;99.90;;;;;;4986869;28;20191;-28
2023/12/08 06:10:26;;;;;;;15.03;10.30;;;1.30;99.90;;;;;;4952944;28;20193;-27
2023/12/08 06:12:52;;;;;;;15.90;11.43;;;1.30;99.90;;;;;;4971822;28;20288;-28
2023/12/08 06:15:18;;;;;;;16.40;11.60;;;1.30;99.90;;;;;;4968638;28;20189;-31
2023/12/08 06:17:44;;;;;;;15.23;11.37;;;1.40;99.90;;;;;;4960881;28;20224;-30
2023/12/08 06:20:10;;;;;;;17.77;11.87;;;1.40;99.90;;;;;;4946880;28;20205;-28
2023/12/08 06:22:37;;;;;;;18.77;12.27;;;1.40;99.90;;;;;;4954770;28;20193;-28
2023/12/08 06:25:03;;;;;;;17.97;12.30;;;1.50;99.90;;;;;;4972217;28;20176;-29
2023/12/08 06:27:29;;;;;;;19.27;12.23;;;1.50;99.90;;;;;;4971790;28;20287;-29
2023/12/08 06:29:55;;;;;;;15.63;12.53;;;1.50;99.90;;;;;;4967941;28;20303;-28
2023/12/08 06:32:21;;;;;;;18.73;13.00;;;1.40;99.90;;;;;;4969078;28;20323;-28
2023/12/08 06:34:47;;;;;;;18.97;12.30;;;1.40;99.90;;;;;;4969229;28;20267;-28
2023/12/08 06:37:13;;;;;;;21.53;12.27;;;1.40;99.90;;;;;;4954075;28;20239;-28
2023/12/08 06:39:42;;;;;;;19.77;12.70;;;1.30;99.90;;;;;;4966698;28;20205;-28
2023/12/08 06:42:08;;;;;;;18.20;11.83;;;1.40;99.90;;;;;;4966790;28;20181;-28
2023/12/08 06:44:33;;;;;;;17.37;12.03;;;1.40;99.90;;;;;;4967551;28;20193;-28
2023/12/08 06:46:59;;;;;;;16.53;12.27;;;1.30;99.90;;;;;;4969753;28;20188;-28
2023/12/08 06:49:25;;;;;;;17.07;12.27;;;1.30;99.90;;;;;;4986507;28;20706;-29
2023/12/08 06:51:51;;;;;;;18.23;11.57;;;1.30;99.90;;;;;;4986135;28;20185;-29
2023/12/08 06:54:17;;;;;;;20.43;12.33;;;1.30;99.90;;;;;;4970297;28;20215;-29
2023/12/08 06:56:44;;;;;;;18.17;11.87;;;1.30;99.90;;;;;;4969350;28;20202;-29
2023/12/08 06:59:11;;;;;;;17.83;11.83;;;1.30;99.90;;;;;;4965127;28;20293;-28
2023/12/08 07:01:38;;;;;;;19.83;12.73;;;1.30;99.90;;;;;;4969322;28;20277;-27
2023/12/08 07:04:04;;;;;;;16.63;12.07;;;1.30;99.90;;;;;;4969041;28;20275;-28
2023/12/08 07:06:30;;;;;;;17.33;12.80;;;1.30;99.90;;;;;;4986656;28;20192;-28
2023/12/08 07:08:56;;;;;;;19.83;12.13;;;1.30;99.90;;;;;;4954512;28;20208;-28
2023/12/08 07:11:23;;;;;;;17.07;12.23;;;1.30;99.90;;;;;;4970624;28;20191;-28
2023/12/08 07:13:49;;;;;;;20.90;12.00;;;1.30;99.90;;;;;;4970662;28;20185;-28
2023/12/08 07:16:15;;;;;;;19.33;12.30;;;1.30;99.90;;;;;;4985939;28;20211;-28
2023/12/08 07:18:41;;;;;;;14.97;10.90;;;1.30;99.90;;;;;;4968751;28;20225;-28
2023/12/08 07:21:07;;;;;;;17.40;11.63;;;1.30;99.90;;;;;;4970953;28;20269;-27
2023/12/08 07:23:33;;;;;;;18.23;11.90;;;1.40;99.90;;;;;;4970256;28;20184;-28
2023/12/08 07:26:00;;;;;;;14.50;10.70;;;1.40;99.90;;;;;;4969870;28;20188;-28
2023/12/08 07:28:26;;;;;;;15.17;11.13;;;1.50;99.90;;;;;;4891682;28;2277016;-28
2023/12/08 07:30:53;;;;;;;15.00;10.83;;;1.50;99.90;;;;;;4985447;28;20447;-28
2023/12/08 07:33:19;;;;;;;15.60;10.43;;;1.50;99.90;;;;;;4969908;28;20404;-28
2023/12/08 07:35:44;;;;;;;14.13;9.90;;;1.60;99.90;;;;;;4968926;28;20273;-27
2023/12/08 07:38:10;;;;;;;15.13;10.93;;;1.60;99.90;;;;;;4970607;28;20239;-27
2023/12/08 07:40:37;;;;;;;14.27;10.53;;;1.60;99.90;;;;;;4970312;28;20243;-27
2023/12/08 07:43:03;;;;;;;14.97;10.27;;;1.60;99.90;;;;;;4966081;28;20284;-26
2023/12/08 07:45:29;;;;;;;15.93;9.93;;;1.60;99.90;;;;;;4967527;28;20188;-28
2023/12/08 07:47:55;;;;;;;16.43;11.23;;;1.70;99.90;;;;;;4970590;28;20191;-27
2023/12/08 07:50:21;;;;;;;15.53;10.30;;;1.70;99.90;;;;;;4970066;28;20192;-28
2023/12/08 07:52:47;;;;;;;16.17;10.83;;;1.70;99.90;;;;;;4971903;28;20177;-28
2023/12/08 07:55:13;;;;;;;15.33;10.77;;;1.80;99.90;;;;;;4971068;28;20193;-28
2023/12/08 07:57:39;;;;;;;16.53;11.27;;;1.80;99.90;;;;;;4957170;28;20227;-26
2023/12/08 08:00:06;;;;;;;18.40;11.13;;;1.80;99.90;;;;;;4970021;28;20240;-28
2023/12/08 08:02:32;;;;;;;14.77;10.90;;;1.90;99.90;;;;;;4970502;28;20168;-28
2023/12/08 08:04:58;;;;;;;15.37;11.20;;;1.90;99.90;;;;;;4970578;28;20181;-28
2023/12/08 08:07:24;;;;;;;16.47;10.77;;;2.00;99.90;;;;;;4970532;28;20189;-28
2023/12/08 08:09:51;;;;;;;14.37;10.33;;;2.00;99.90;;;;;;4970337;28;20220;-28
2023/12/08 08:12:17;;;;;;;16.87;10.03;;;2.10;99.90;;;;;;4970328;28;20260;-28
2023/12/08 08:14:43;;;;;;;15.43;10.97;;;2.10;99.90;;;;;;4952852;28;20189;-28
2023/12/08 08:17:09;;;;;;;13.60;9.60;;;2.20;99.90;;;;;;4970295;28;20211;-29
2023/12/08 08:19:34;;;;;;;16.93;10.37;;;2.30;99.90;;;;;;4969603;28;20200;-28
2023/12/08 08:22:00;;;;;;;17.20;10.73;;;2.30;99.90;;;;;;4985840;28;20192;-28
2023/12/08 08:24:27;;;;;;;17.83;10.60;;;2.40;99.90;;;;;;4970038;28;20212;-28
2023/12/08 08:26:53;;;;;;;13.27;9.87;;;2.50;99.90;;;;;;4969863;28;20189;-28
2023/12/08 08:29:18;;;;;;;16.53;10.60;;;2.50;99.90;;;;;;4970361;28;20223;-28
2023/12/08 08:31:44;;;;;;;15.53;10.00;;;2.50;99.90;;;;;;4952814;28;20197;-29
2023/12/08 08:34:10;;;;;;;13.80;9.80;;;2.60;99.90;;;;;;4948576;29;20268;-28
2023/12/08 08:36:36;;;;;;;15.30;9.87;;;2.60;99.90;;;;;;4944222;28;20216;-29
2023/12/08 08:39:03;;;;;;;16.50;10.90;;;2.60;99.90;;;;;;4970287;28;20196;-28
2023/12/08 08:41:29;;;;;;;17.83;11.67;;;2.70;99.90;;;;;;4970266;28;20256;-28
2023/12/08 08:43:55;;;;;;;21.03;11.57;;;2.70;99.90;;;;;;4986710;28;20184;-28
2023/12/08 08:46:21;;;;;;;21.93;12.63;;;2.70;99.90;;;;;;4970450;28;20200;-29
2023/12/08 08:48:47;;;;;;;20.20;13.10;;;2.70;99.90;;;;;;4986637;28;20196;-28
2023/12/08 08:51:14;;;;;;;18.10;12.40;;;2.70;99.90;;;;;;4953991;28;20177;-29
2023/12/08 08:53:40;;;;;;;20.10;13.27;;;2.70;99.90;;;;;;4970386;28;20272;-29
2023/12/08 08:56:06;;;;;;;21.63;13.30;;;2.70;99.90;;;;;;4970083;28;20299;-28
2023/12/08 08:58:34;;;;;;;23.47;13.47;;;2.70;99.90;;;;;;4971289;28;20241;-29
2023/12/08 09:01:00;;;;;;;18.17;12.07;;;2.80;99.90;;;;;;4952771;28;20192;-28
2023/12/08 09:03:26;;;;;;;17.30;11.30;;;2.80;99.90;;;;;;4970450;28;20172;-29
2023/12/08 09:05:52;;;;;;;16.43;11.27;;;2.90;99.90;;;;;;4969165;28;20229;-29
2023/12/08 09:08:17;;;;;;;15.90;10.87;;;2.90;99.90;;;;;;4951102;28;20196;-28
2023/12/08 09:10:45;;;;;;;15.73;10.13;;;3.00;99.90;;;;;;4955204;28;20195;-29
2023/12/08 09:13:12;;;;;;;15.47;9.83;;;3.10;99.90;;;;;;4953110;28;20193;-29
2023/12/08 09:15:39;;;;;;;18.17;11.33;;;3.20;99.90;;;;;;4959551;28;20236;-29
2023/12/08 09:18:05;;;;;;;26.50;17.23;;;3.20;99.90;;;;;;4971959;28;20377;-29
2023/12/08 09:20:31;;;;;;;17.93;11.97;;;3.40;99.90;;;;;;4972191;28;20192;-29
2023/12/08 09:22:57;;;;;;;13.47;10.13;;;3.50;99.90;;;;;;4971977;28;20185;-29
2023/12/08 09:25:23;;;;;;;13.63;10.27;;;3.70;99.90;;;;;;4957705;28;20231;-29
2023/12/08 09:27:49;;;;;;;16.93;11.27;;;3.80;99.90;;;;;;4975115;28;20247;-29
2023/12/08 09:30:15;;;;;;;14.03;8.67;;;3.90;99.90;;;;;;4976420;28;20200;-29
2023/12/08 09:32:41;;;;;;;10.73;8.13;;;4.10;99.90;;;;;;4974793;28;20191;-29
2023/12/08 09:35:07;;;;;;;15.37;9.70;;;4.20;99.90;;;;;;4991716;28;20211;-29
2023/12/08 09:37:32;;;;;;;11.83;7.77;;;4.20;99.90;;;;;;4975081;28;20223;-28
2023/12/08 09:39:58;;;;;;;33.73;15.10;;;4.30;99.90;;;;;;4975030;28;20293;-29
2023/12/08 09:42:38;;;;;;;30.37;12.57;;;4.40;99.90;;;;;;4975034;28;20190;-29
2023/12/08 09:45:05;;;;;;;20.43;10.07;;;4.40;99.90;;;;;;4955533;29;20181;-28
2023/12/08 09:47:34;;;;;;;14.90;8.13;;;4.40;99.90;;;;;;4955912;28;20220;-29
2023/12/08 09:50:02;;;;;;;10.47;6.70;;;4.50;99.90;;;;;;4974971;28;20211;-29
2023/12/08 09:52:29;;;;;;;10.73;7.03;;;4.50;99.90;;;;;;4990821;28;20193;-30
2023/12/08 09:54:56;;;;;;;25.53;16.40;;;4.50;99.90;;;;;;4974714;28;20194;-29
2023/12/08 09:57:22;;;;;;;23.00;14.83;;;4.50;99.90;;;;;;4991300;28;20214;-29
2023/12/08 09:59:51;;;;;;;18.33;11.77;;;4.50;99.90;;;;;;4974564;28;20239;-29
2023/12/08 10:02:18;;;;;;;10.83;8.30;;;4.60;99.90;;;;;;4974380;28;20191;-29
2023/12/08 10:04:44;;;;;;;13.27;8.23;;;4.70;99.90;;;;;;4958565;28;20188;-29
2023/12/08 10:07:11;;;;;;;12.17;7.50;;;4.70;99.90;;;;;;4974513;28;20194;-29
2023/12/08 10:09:37;;;;;;;9.87;6.80;;;4.70;99.90;;;;;;4974601;28;20214;-29
2023/12/08 10:12:03;;;;;;;7.17;5.83;;;4.70;99.90;;;;;;4990686;28;20198;-29
2023/12/08 10:14:31;;;;;;;7.90;6.00;;;4.70;99.90;;;;;;4974689;28;20190;-29
2023/12/08 10:16:57;;;;;;;10.20;7.23;;;4.80;99.90;;;;;;4990742;28;20214;-29
2023/12/08 10:19:24;;;;;;;9.17;6.77;;;4.80;99.90;;;;;;4990930;28;20208;-29
2023/12/08 10:22:17;;;;;;;9.77;6.10;;;4.80;99.90;;;;;;4974241;28;20196;-29
2023/12/08 10:24:42;;;;;;;8.40;6.23;;;4.90;99.90;;;;;;4972641;28;20205;-29
2023/12/08 10:27:09;;;;;;;6.60;4.80;;;4.90;99.90;;;;;;4990280;28;20311;-29
2023/12/08 10:29:36;;;;;;;3.80;3.40;;;5.00;99.90;;;;;;4990636;28;20227;-29
2023/12/08 10:32:04;;;;;;;4.83;3.60;;;5.10;99.90;;;;;;4974134;28;20263;-29
2023/12/08 10:34:31;;;;;;;3.87;3.10;;;5.10;99.90;;;;;;4990359;28;20199;-29
2023/12/08 10:36:57;;;;;;;3.70;3.30;;;5.20;99.90;;;;;;4973082;28;20211;-29
2023/12/08 10:39:24;;;;;;;3.40;3.10;;;5.30;99.90;;;;;;4973914;28;20209;-29
2023/12/08 10:41:53;;;;;;;4.73;3.33;;;5.30;99.90;;;;;;4973575;28;20246;-29
2023/12/08 10:44:23;;;;;;;3.43;2.93;;;5.40;99.90;;;;;;4989616;28;20205;-29
2023/12/08 10:46:49;;;;;;;3.53;2.80;;;5.40;99.90;;;;;;4973819;28;20207;-29
2023/12/08 10:49:19;;;;;;;5.77;4.33;;;5.40;99.90;;;;;;4990343;28;20276;-29
2023/12/08 10:51:49;;;;;;;5.47;4.70;;;5.50;99.90;;;;;;4973312;28;20196;-29
2023/12/08 10:54:19;;;;;;;6.50;5.23;;;5.50;99.90;;;;;;4973593;28;20192;-29
2023/12/08 10:56:46;;;;;;;6.60;5.77;;;5.50;99.90;;;;;;4973670;28;20222;-29
2023/12/08 10:59:21;;;;;;;7.77;5.93;;;5.40;99.90;;;;;;4973624;28;20208;-29
2023/12/08 11:01:50;;;;;;;7.40;6.10;;;5.40;99.90;;;;;;4973073;28;20220;-29
2023/12/08 11:04:21;;;;;;;6.83;6.00;;;5.40;99.90;;;;;;4973750;28;20192;-29
2023/12/08 11:07:12;;;;;;;9.87;7.67;;;5.50;99.90;;;;;;4973516;28;20221;-29
2023/12/08 11:09:39;;;;;;;12.23;10.30;;;5.50;99.90;;;;;;4973082;28;20215;-29
2023/12/08 11:12:10;;;;;;;11.47;9.60;;;5.50;99.90;;;;;;4972993;28;20188;-29
2023/12/08 11:14:42;;;;;;;10.27;8.03;;;5.50;99.90;;;;;;4967801;28;20197;-29
2023/12/08 11:17:22;;;;;;;8.43;7.07;;;5.50;99.90;;;;;;4947905;29;20201;-29
2023/12/08 11:19:49;;;;;;;13.20;9.07;;;5.50;99.90;;;;;;4963568;28;20215;-29
2023/12/08 11:22:15;;;;;;;14.83;10.30;;;5.50;99.90;;;;;;4972918;28;20236;-29
2023/12/08 11:24:42;;;;;;;17.37;10.43;;;5.50;99.90;;;;;;4972995;28;20192;-29
2023/12/08 11:27:23;;;;;;;11.17;7.80;;;5.50;99.90;;;;;;4973049;28;20239;-29
2023/12/08 11:30:00;;;;;;;10.00;7.67;;;5.60;99.90;;;;;;4972869;28;20242;-29
2023/12/08 11:32:48;;;;;;;12.73;8.00;;;5.60;99.90;;;;;;4955944;28;20195;-29
2023/12/08 11:35:17;;;;;;;9.33;7.20;;;5.60;99.90;;;;;;4972771;28;20188;-30
2023/12/08 11:37:45;;;;;;;9.57;7.10;;;5.60;99.90;;;;;;4972748;28;20220;-29
2023/12/08 11:40:11;;;;;;;9.97;7.33;;;5.60;99.90;;;;;;4974036;28;20227;-29
2023/12/08 11:42:38;;;;;;;10.07;7.50;;;5.60;99.90;;;;;;4972642;28;20189;-29
2023/12/08 11:45:10;;;;;;;9.13;6.93;;;5.60;99.90;;;;;;4972502;28;20177;-29
2023/12/08 11:47:37;;;;;;;9.73;6.00;;;5.70;99.90;;;;;;4972822;28;20184;-29
2023/12/08 11:50:05;;;;;;;7.83;5.70;;;5.70;99.90;;;;;;4972342;28;20291;-29
2023/12/08 11:52:33;;;;;;;10.20;7.10;;;5.70;99.90;;;;;;4974295;28;20668;-30
2023/12/08 11:55:09;;;;;;;8.50;6.73;;;5.70;99.90;;;;;;4988452;28;20192;-29
2023/12/08 11:57:41;;;;;;;7.23;5.87;;;5.70;99.90;;;;;;4956089;28;20219;-29
2023/12/08 12:00:10;;;;;;;9.00;6.93;;;5.70;99.90;;;;;;4965126;28;20211;-29
2023/12/08 12:02:40;;;;;;;10.33;7.10;;;5.70;99.90;;;;;;4972128;28;20192;-29
2023/12/08 12:05:07;;;;;;;15.30;9.07;;;5.80;99.90;;;;;;4972105;28;20219;-29
2023/12/08 12:07:33;;;;;;;8.33;5.60;;;5.80;99.90;;;;;;4975227;28;20197;-29
2023/12/08 12:10:02;;;;;;;4.10;3.70;;;5.90;99.90;;;;;;4976337;28;20215;-29
2023/12/08 12:12:32;;;;;;;4.97;3.83;;;5.90;99.90;;;;;;4957241;28;20211;-29
2023/12/08 12:15:03;;;;;;;5.93;4.43;;;6.00;99.90;;;;;;4971559;28;20191;-29
2023/12/08 12:17:29;;;;;;;5.47;4.63;;;6.00;99.90;;;;;;4972411;28;20211;-29
2023/12/08 12:19:55;;;;;;;3.43;3.07;;;6.10;99.90;;;;;;4972168;28;20212;-29
2023/12/08 12:22:21;;;;;;;2.77;2.50;;;6.10;99.90;;;;;;4972348;28;20195;-29
2023/12/08 12:24:49;;;;;;;4.13;3.13;;;6.10;99.90;;;;;;4955963;28;20188;-29
2023/12/08 12:27:15;;;;;;;8.13;4.97;;;6.20;99.90;;;;;;4962485;28;20211;-29
2023/12/08 12:29:42;;;;;;;6.80;4.47;;;6.20;99.90;;;;;;4945770;28;20230;-29
2023/12/08 12:32:08;;;;;;;6.17;4.47;;;6.20;99.90;;;;;;4972298;28;20196;-30
2023/12/08 12:34:35;;;;;;;6.70;4.10;;;6.30;99.90;;;;;;4987670;28;20180;-30
2023/12/08 12:37:01;;;;;;;4.83;3.87;;;6.30;99.90;;;;;;4971623;28;20280;-29
2023/12/08 12:39:27;;;;;;;9.87;6.30;;;6.30;99.90;;;;;;4972452;28;20236;-30